createdAt,value
2023-02-18T00:01:40.108Z,17.11
2023-02-18T00:04:08.017Z,17.15
2023-02-18T00:06:36.914Z,17.14
2023-02-18T00:09:06.382Z,17.12
2023-02-18T00:11:37.338Z,17.20
2023-02-18T00:14:11.977Z,17.16
2023-02-18T00:16:42.205Z,17.15
2023-02-18T00:19:18.152Z,17.17
2023-02-18T00:21:46.862Z,17.12
2023-02-18T00:24:16.335Z,17.10
2023-02-18T00:26:44.611Z,17.13
2023-02-18T00:29:12.664Z,17.14
2023-02-18T00:31:41.512Z,17.13
2023-02-18T00:34:12.009Z,17.18
2023-02-18T00:36:40.291Z,17.16
2023-02-18T00:39:10.047Z,17.19
2023-02-18T00:41:38.000Z,17.12
2023-02-18T00:44:07.013Z,17.12
2023-02-18T00:46:35.602Z,17.13
2023-02-18T00:49:05.166Z,17.13
2023-02-18T00:51:33.756Z,17.15
2023-02-18T00:54:01.601Z,17.14
2023-02-18T00:56:29.522Z,17.14
2023-02-18T00:58:57.371Z,17.17
2023-02-18T01:01:26.243Z,17.16
2023-02-18T01:03:54.402Z,17.13
2023-02-18T01:06:22.953Z,17.13
2023-02-18T01:08:50.945Z,17.12
2023-02-18T01:11:19.414Z,17.10
2023-02-18T01:13:47.433Z,17.11
2023-02-18T01:16:15.319Z,17.15
2023-02-18T01:18:43.630Z,17.17
2023-02-18T01:21:12.325Z,17.19
2023-02-18T01:23:42.755Z,17.18
2023-02-18T01:26:11.735Z,17.17
2023-02-18T01:28:41.497Z,17.15
2023-02-18T01:31:12.771Z,17.19
2023-02-18T01:33:40.761Z,17.13
2023-02-18T01:36:11.148Z,17.19
2023-02-18T01:38:39.903Z,17.19
2023-02-18T01:41:07.726Z,17.14
2023-02-18T01:43:36.175Z,17.18
2023-02-18T01:46:20.645Z,17.22
2023-02-18T01:48:56.264Z,17.13
2023-02-18T01:51:41.879Z,17.21
2023-02-18T01:54:16.727Z,17.15
2023-02-18T01:57:02.860Z,17.20
2023-02-18T01:59:48.777Z,17.17
2023-02-18T02:02:21.498Z,17.14
2023-02-18T02:04:49.910Z,17.12
2023-02-18T02:07:20.948Z,17.11
2023-02-18T02:09:51.345Z,17.09
2023-02-18T02:12:56.739Z,17.06
2023-02-18T02:15:49.526Z,17.02
2023-02-18T02:18:38.554Z,17.07
2023-02-18T02:21:39.424Z,17.07
2023-02-18T02:24:31.652Z,17.02
2023-02-18T02:27:23.380Z,17.02
2023-02-18T02:30:51.532Z,17.00
2023-02-18T02:33:43.605Z,16.97
2023-02-18T02:36:24.800Z,17.00
2023-02-18T02:39:17.326Z,16.99
2023-02-18T02:42:19.978Z,17.01
2023-02-18T02:45:04.266Z,17.04
2023-02-18T02:47:57.134Z,17.01
2023-02-18T02:51:00.132Z,16.98
2023-02-18T02:53:33.820Z,16.95
2023-02-18T02:56:25.610Z,17.00
2023-02-18T02:59:04.355Z,17.02
2023-02-18T03:02:18.106Z,17.01
2023-02-18T03:05:12.083Z,16.97
2023-02-18T03:08:00.908Z,16.92
2023-02-18T03:10:34.803Z,16.92
2023-02-18T03:13:26.022Z,16.92
2023-02-18T03:16:00.651Z,16.91
2023-02-18T03:19:07.634Z,16.91
2023-02-18T03:21:44.729Z,16.84
2023-02-18T03:24:25.143Z,16.87
2023-02-18T03:26:59.596Z,16.92
2023-02-18T03:29:28.907Z,16.90
2023-02-18T03:32:02.972Z,16.91
2023-02-18T03:34:38.196Z,16.96
2023-02-18T03:37:08.804Z,16.94
2023-02-18T03:39:39.849Z,16.93
2023-02-18T03:42:07.886Z,16.90
2023-02-18T03:44:35.924Z,16.94
2023-02-18T03:47:04.219Z,16.96
2023-02-18T03:49:32.179Z,16.97
2023-02-18T03:52:01.602Z,16.98
2023-02-18T03:54:29.610Z,16.96
2023-02-18T03:56:57.378Z,16.89
2023-02-18T03:59:25.211Z,16.91
2023-02-18T04:01:53.019Z,16.93
2023-02-18T04:04:20.866Z,16.96
2023-02-18T04:06:48.643Z,16.93
2023-02-18T04:09:16.322Z,16.86
2023-02-18T04:11:44.096Z,16.92
2023-02-18T04:14:14.450Z,16.93
2023-02-18T04:16:42.735Z,16.88
2023-02-18T04:19:10.626Z,16.86
2023-02-18T04:21:38.367Z,16.91
2023-02-18T04:24:06.364Z,16.92
2023-02-18T04:26:34.278Z,16.92
2023-02-18T04:29:02.109Z,16.92
2023-02-18T04:31:30.217Z,16.89
2023-02-18T04:33:58.258Z,16.92
2023-02-18T04:36:25.988Z,16.90
2023-02-18T04:38:53.902Z,16.88
2023-02-18T04:41:21.612Z,16.91
2023-02-18T04:43:49.304Z,16.88
2023-02-18T04:46:17.205Z,16.89
2023-02-18T04:48:45.463Z,16.91
2023-02-18T04:51:13.320Z,16.95
2023-02-18T04:53:41.050Z,16.95
2023-02-18T04:56:09.558Z,16.88
2023-02-18T04:58:37.642Z,16.93
2023-02-18T05:01:05.597Z,16.89
2023-02-18T05:03:33.782Z,16.87
2023-02-18T05:06:01.562Z,16.87
2023-02-18T05:08:29.263Z,16.88
2023-02-18T05:10:57.008Z,16.88
2023-02-18T05:13:24.742Z,16.91
2023-02-18T05:15:52.933Z,16.89
2023-02-18T05:18:20.768Z,16.89
2023-02-18T05:20:48.663Z,16.80
2023-02-18T05:23:16.707Z,16.85
2023-02-18T05:25:44.661Z,16.88
2023-02-18T05:28:12.651Z,16.90
2023-02-18T05:30:40.469Z,16.84
2023-02-18T05:33:08.211Z,16.93
2023-02-18T05:35:36.023Z,16.92
2023-02-18T05:38:03.892Z,16.94
2023-02-18T05:40:31.771Z,16.91
2023-02-18T05:42:59.714Z,16.90
2023-02-18T05:45:27.637Z,16.87
2023-02-18T05:47:55.335Z,16.90
2023-02-18T05:50:23.330Z,16.87
2023-02-18T05:52:51.102Z,16.87
2023-02-18T05:55:19.365Z,16.86
2023-02-18T05:57:47.110Z,16.83
2023-02-18T06:00:15.643Z,16.81
2023-02-18T06:02:43.375Z,16.85
2023-02-18T06:05:11.241Z,16.79
2023-02-18T06:07:38.982Z,16.79
2023-02-18T06:10:07.901Z,16.76
2023-02-18T06:12:35.818Z,16.75
2023-02-18T06:15:04.214Z,16.74
2023-02-18T06:17:32.080Z,16.72
2023-02-18T06:19:59.817Z,16.71
2023-02-18T06:22:27.764Z,16.66
2023-02-18T06:24:55.477Z,16.60
2023-02-18T06:27:23.439Z,16.65
2023-02-18T06:29:51.158Z,16.68
2023-02-18T06:32:18.989Z,16.69
2023-02-18T06:34:47.132Z,16.67
2023-02-18T06:37:14.844Z,16.67
2023-02-18T06:39:42.705Z,16.63
2023-02-18T06:42:10.777Z,16.63
2023-02-18T06:44:38.650Z,16.60
2023-02-18T06:47:07.295Z,16.62
2023-02-18T06:49:36.402Z,16.63
2023-02-18T06:52:05.289Z,16.61
2023-02-18T06:54:34.407Z,16.62
2023-02-18T06:57:02.216Z,16.61
2023-02-18T06:59:29.902Z,16.58
2023-02-18T07:01:57.875Z,16.59
2023-02-18T07:04:25.615Z,16.59
2023-02-18T07:06:53.359Z,16.57
2023-02-18T07:09:21.096Z,16.59
2023-02-18T07:11:49.018Z,16.59
2023-02-18T07:14:16.907Z,16.59
2023-02-18T07:16:44.775Z,16.66
2023-02-18T07:19:14.629Z,16.62
2023-02-18T07:21:43.459Z,16.64
2023-02-18T07:24:11.348Z,16.66
2023-02-18T07:26:39.479Z,16.63
2023-02-18T07:29:07.180Z,16.72
2023-02-18T07:31:35.072Z,16.66
2023-02-18T07:34:02.837Z,16.75
2023-02-18T07:36:30.586Z,16.77
2023-02-18T07:38:58.298Z,16.77
2023-02-18T07:41:26.809Z,16.72
2023-02-18T07:43:54.586Z,16.80
2023-02-18T07:46:22.670Z,16.82
2023-02-18T07:48:50.413Z,16.85
2023-02-18T07:51:18.138Z,16.85
2023-02-18T07:53:46.002Z,16.86
2023-02-18T07:56:13.758Z,16.86
2023-02-18T07:58:41.611Z,16.86
2023-02-18T08:01:13.116Z,16.91
2023-02-18T08:03:40.936Z,16.73
2023-02-18T08:06:19.357Z,16.86
2023-02-18T08:08:47.270Z,16.90
2023-02-18T08:11:19.545Z,16.99
2023-02-18T08:13:49.000Z,17.01
2023-02-18T08:16:19.189Z,17.08
2023-02-18T08:18:48.556Z,17.08
2023-02-18T08:21:18.031Z,17.15
2023-02-18T08:23:45.970Z,17.24
2023-02-18T08:26:14.526Z,17.29
2023-02-18T08:28:47.170Z,17.37
2023-02-18T08:31:25.819Z,17.41
2023-02-18T08:33:56.186Z,17.45
2023-02-18T08:36:24.585Z,17.48
2023-02-18T08:38:52.433Z,17.57
2023-02-18T08:41:20.527Z,17.62
2023-02-18T08:43:48.901Z,17.64
2023-02-18T08:46:24.880Z,17.63
2023-02-18T08:48:55.190Z,17.74
2023-02-18T08:51:23.520Z,17.76
2023-02-18T08:54:11.170Z,17.74
2023-02-18T08:56:39.737Z,17.80
2023-02-18T08:59:27.472Z,17.85
2023-02-18T09:02:15.640Z,17.93
2023-02-18T09:04:43.675Z,17.92
2023-02-18T09:07:11.584Z,18.02
2023-02-18T09:09:39.353Z,18.04
2023-02-18T09:12:07.680Z,18.09
2023-02-18T09:14:35.479Z,18.12
2023-02-18T09:17:03.397Z,18.14
2023-02-18T09:19:31.223Z,18.14
2023-02-18T09:22:00.745Z,18.24
2023-02-18T09:24:28.870Z,18.24
2023-02-18T09:26:56.700Z,18.31
2023-02-18T09:29:24.766Z,18.32
2023-02-18T09:31:52.620Z,18.38
2023-02-18T09:34:20.391Z,18.42
2023-02-18T09:36:48.228Z,18.39
2023-02-18T09:39:18.023Z,18.45
2023-02-18T09:41:54.121Z,18.43
2023-02-18T09:44:40.283Z,18.44
2023-02-18T09:47:20.085Z,18.52
2023-02-18T09:50:05.529Z,18.61
2023-02-18T09:52:38.335Z,18.65
2023-02-18T09:55:23.993Z,18.74
2023-02-18T09:57:56.323Z,18.72
2023-02-18T10:00:52.506Z,18.72
2023-02-18T10:03:25.484Z,18.70
2023-02-18T10:06:01.214Z,18.75
2023-02-18T10:08:40.281Z,18.75
2023-02-18T10:11:42.293Z,18.74
2023-02-18T10:14:13.630Z,18.67
2023-02-18T10:16:43.162Z,18.57
2023-02-18T10:19:34.650Z,18.72
2023-02-18T10:22:05.353Z,18.58
2023-02-18T10:24:44.251Z,18.68
2023-02-18T10:27:25.173Z,18.75
2023-02-18T10:29:54.455Z,18.79
2023-02-18T10:32:34.306Z,18.95
2023-02-18T10:36:25.288Z,19.01
2023-02-18T10:39:32.278Z,19.06
2023-02-18T10:42:29.379Z,19.10
2023-02-18T10:45:28.774Z,19.13
2023-02-18T10:48:28.055Z,19.21
2023-02-18T10:50:58.686Z,19.19
2023-02-18T10:53:38.818Z,19.28
2023-02-18T10:56:08.352Z,19.32
2023-02-18T10:58:46.090Z,19.39
2023-02-18T11:01:17.580Z,19.47
2023-02-18T11:03:49.106Z,19.40
2023-02-18T11:06:41.016Z,19.56
2023-02-18T11:09:33.765Z,19.66
2023-02-18T11:12:14.110Z,19.67
2023-02-18T11:14:49.272Z,19.69
2023-02-18T11:17:28.109Z,19.73
2023-02-18T11:20:02.139Z,19.72
2023-02-18T11:22:41.463Z,19.79
2023-02-18T11:25:28.364Z,19.80
2023-02-18T11:28:00.450Z,19.76
2023-02-18T11:30:34.853Z,19.86
2023-02-18T11:33:09.982Z,19.83
2023-02-18T11:35:38.261Z,19.74
2023-02-18T11:38:36.750Z,19.81
2023-02-18T11:41:10.306Z,19.76
2023-02-18T11:43:45.613Z,19.70
2023-02-18T11:46:27.166Z,19.70
2023-02-18T11:48:56.050Z,19.57
2023-02-18T11:51:33.086Z,19.59
2023-02-18T11:54:05.268Z,19.61
2023-02-18T11:56:36.190Z,19.62
2023-02-18T11:59:04.918Z,19.70
2023-02-18T12:01:47.647Z,19.85
2023-02-18T12:04:42.891Z,19.91
2023-02-18T12:07:31.837Z,19.92
2023-02-18T12:10:11.942Z,19.92
2023-02-18T12:13:04.949Z,19.94
2023-02-18T12:15:52.821Z,19.94
2023-02-18T12:18:57.711Z,19.93
2023-02-18T12:21:55.555Z,19.86
2023-02-18T12:24:33.777Z,19.84
2023-02-18T12:27:22.631Z,19.88
2023-02-18T12:30:33.032Z,19.87
2023-02-18T12:33:37.406Z,19.84
2023-02-18T12:36:33.085Z,19.80
2023-02-18T12:39:41.408Z,19.77
2023-02-18T12:42:33.495Z,19.75
2023-02-18T12:45:18.524Z,19.65
2023-02-18T12:48:23.289Z,19.65
2023-02-18T12:51:14.985Z,19.57
2023-02-18T12:53:50.275Z,19.56
2023-02-18T12:56:42.662Z,19.57
2023-02-18T12:59:51.376Z,19.51
2023-02-18T13:02:46.511Z,19.44
2023-02-18T13:05:29.237Z,19.35
2023-02-18T13:08:30.842Z,19.28
2023-02-18T13:11:10.918Z,19.26
2023-02-18T13:14:11.963Z,19.28
2023-02-18T13:16:44.861Z,19.27
2023-02-18T13:19:44.313Z,19.34
2023-02-18T13:22:16.288Z,19.36
2023-02-18T13:24:48.618Z,19.37
2023-02-18T13:27:48.278Z,19.40
2023-02-18T13:30:36.639Z,19.37
2023-02-18T13:33:36.812Z,19.39
2023-02-18T13:36:23.702Z,19.42
2023-02-18T13:39:03.384Z,19.52
2023-02-18T13:41:40.720Z,19.57
2023-02-18T13:44:28.737Z,19.67
2023-02-18T13:46:59.192Z,19.74
2023-02-18T13:49:34.616Z,19.84
2023-02-18T13:52:04.356Z,19.94
2023-02-18T13:54:45.010Z,20.08
2023-02-18T13:57:27.038Z,20.10
2023-02-18T14:00:02.779Z,20.14
2023-02-18T14:02:36.857Z,20.08
2023-02-18T14:05:08.377Z,20.10
2023-02-18T14:07:36.101Z,19.88
2023-02-18T14:10:32.586Z,19.94
2023-02-18T14:13:00.430Z,19.93
2023-02-18T14:15:28.780Z,19.90
2023-02-18T14:18:14.253Z,19.75
2023-02-18T14:20:46.674Z,19.56
2023-02-18T14:23:20.533Z,19.53
2023-02-18T14:26:14.856Z,19.45
2023-02-18T14:28:54.772Z,19.43
2023-02-18T14:31:48.958Z,19.37
2023-02-18T14:35:11.153Z,19.23
2023-02-18T14:38:04.288Z,19.17
2023-02-18T14:41:32.933Z,19.17
2023-02-18T14:45:04.869Z,19.05
2023-02-18T14:47:59.582Z,18.99
2023-02-18T14:50:35.372Z,18.97
2023-02-18T14:53:18.432Z,18.99
2023-02-18T14:56:09.201Z,18.94
2023-02-18T14:58:48.051Z,18.96
2023-02-18T15:01:33.180Z,18.98
2023-02-18T15:04:02.733Z,18.89
2023-02-18T15:06:37.641Z,18.96
2023-02-18T15:09:22.345Z,18.95
2023-02-18T15:11:55.023Z,18.94
2023-02-18T15:14:39.443Z,18.94
2023-02-18T15:17:23.996Z,18.88
2023-02-18T15:19:58.773Z,18.84
2023-02-18T15:22:31.484Z,18.83
2023-02-18T15:25:00.107Z,18.75
2023-02-18T15:27:35.107Z,18.80
2023-02-18T15:30:21.278Z,18.75
2023-02-18T15:32:59.043Z,18.64
2023-02-18T15:35:31.698Z,18.54
2023-02-18T15:38:01.812Z,18.51
2023-02-18T15:40:37.140Z,18.44
2023-02-18T15:43:07.799Z,18.41
2023-02-18T15:45:41.410Z,18.38
2023-02-18T15:48:33.518Z,18.37
2023-02-18T15:51:16.875Z,18.25
2023-02-18T15:53:50.131Z,18.26
2023-02-18T15:56:35.500Z,18.26
2023-02-18T15:59:36.940Z,18.17
2023-02-18T16:02:08.901Z,18.14
2023-02-18T16:04:45.679Z,18.10
2023-02-18T16:07:49.378Z,17.97
2023-02-18T16:10:36.929Z,17.99
2023-02-18T16:13:06.046Z,17.95
2023-02-18T16:15:40.712Z,17.98
2023-02-18T16:18:41.453Z,17.95
2023-02-18T16:21:18.038Z,17.93
2023-02-18T16:23:57.851Z,17.93
2023-02-18T16:26:28.531Z,17.92
2023-02-18T16:29:34.383Z,17.84
2023-02-18T16:32:02.504Z,17.77
2023-02-18T16:34:30.340Z,17.75
2023-02-18T16:37:16.952Z,17.70
2023-02-18T16:39:44.702Z,17.67
2023-02-18T16:42:13.818Z,17.65
2023-02-18T16:44:41.795Z,17.67
2023-02-18T16:47:16.572Z,17.69
2023-02-18T16:49:51.109Z,17.65
2023-02-18T16:52:19.819Z,17.57
2023-02-18T16:54:53.257Z,17.66
2023-02-18T16:57:21.901Z,17.65
2023-02-18T16:59:50.271Z,17.66
2023-02-18T17:02:22.454Z,17.63
2023-02-18T17:04:54.384Z,17.53
2023-02-18T17:07:23.908Z,17.50
2023-02-18T17:09:51.724Z,17.51
2023-02-18T17:12:19.635Z,17.42
2023-02-18T17:14:47.983Z,17.44
2023-02-18T17:17:17.940Z,17.48
2023-02-18T17:19:45.651Z,17.48
2023-02-18T17:22:14.450Z,17.45
2023-02-18T17:24:42.294Z,17.42
2023-02-18T17:27:14.006Z,17.43
2023-02-18T17:29:41.697Z,17.37
2023-02-18T17:32:09.517Z,17.30
2023-02-18T17:34:40.960Z,17.28
2023-02-18T17:37:13.873Z,17.27
2023-02-18T17:39:41.719Z,17.27
2023-02-18T17:42:12.201Z,17.30
2023-02-18T17:44:40.553Z,17.28
2023-02-18T17:47:08.364Z,17.23
2023-02-18T17:49:36.244Z,17.27
2023-02-18T17:52:04.724Z,17.25
2023-02-18T17:54:32.515Z,17.27
2023-02-18T17:57:00.332Z,17.27
2023-02-18T17:59:29.149Z,17.28
2023-02-18T18:01:57.073Z,17.22
2023-02-18T18:04:25.159Z,17.26
2023-02-18T18:06:52.948Z,17.18
2023-02-18T18:09:20.656Z,17.17
2023-02-18T18:11:48.422Z,17.20
2023-02-18T18:14:16.097Z,17.21
2023-02-18T18:16:43.883Z,17.24
2023-02-18T18:19:11.992Z,17.21
2023-02-18T18:21:40.359Z,17.18
2023-02-18T18:24:12.184Z,17.19
2023-02-18T18:26:41.880Z,17.14
2023-02-18T18:29:10.146Z,17.12
2023-02-18T18:31:39.053Z,17.07
2023-02-18T18:34:06.941Z,17.09
2023-02-18T18:36:34.815Z,17.03
2023-02-18T18:39:02.763Z,17.02
2023-02-18T18:41:30.666Z,17.01
2023-02-18T18:43:58.714Z,16.95
2023-02-18T18:46:26.713Z,16.96
2023-02-18T18:48:54.626Z,16.92
2023-02-18T18:51:29.910Z,16.93
2023-02-18T18:53:57.640Z,16.83
2023-02-18T18:56:25.390Z,16.73
2023-02-18T18:58:53.347Z,16.67
2023-02-18T19:01:27.141Z,16.63
2023-02-18T19:03:55.438Z,16.57
2023-02-18T19:06:24.572Z,16.55
2023-02-18T19:08:52.399Z,16.49
2023-02-18T19:11:20.051Z,16.55
2023-02-18T19:13:47.810Z,16.51
2023-02-18T19:16:21.231Z,16.51
2023-02-18T19:18:51.694Z,16.47
2023-02-18T19:21:19.427Z,16.42
2023-02-18T19:23:47.557Z,16.45
2023-02-18T19:26:16.772Z,16.44
2023-02-18T19:28:46.156Z,16.43
2023-02-18T19:31:14.667Z,16.43
2023-02-18T19:33:45.534Z,16.35
2023-02-18T19:36:14.941Z,16.35
2023-02-18T19:38:42.996Z,16.32
2023-02-18T19:41:16.825Z,16.28
2023-02-18T19:43:46.649Z,16.25
2023-02-18T19:46:19.931Z,16.29
2023-02-18T19:48:50.993Z,16.27
2023-02-18T19:51:21.306Z,16.24
2023-02-18T19:53:49.316Z,16.24
2023-02-18T19:56:17.151Z,16.23
2023-02-18T19:58:45.025Z,16.18
2023-02-18T20:01:18.326Z,16.21
2023-02-18T20:03:47.284Z,16.11
2023-02-18T20:06:22.180Z,16.19
2023-02-18T20:08:49.972Z,16.18
2023-02-18T20:11:18.073Z,16.21
2023-02-18T20:13:48.340Z,16.23
2023-02-18T20:16:16.277Z,16.21
2023-02-18T20:18:44.055Z,16.19
2023-02-18T20:21:12.574Z,16.18
2023-02-18T20:23:40.754Z,16.14
2023-02-18T20:26:10.768Z,16.15
2023-02-18T20:28:38.780Z,16.15
2023-02-18T20:31:11.161Z,16.20
2023-02-18T20:33:42.319Z,16.13
2023-02-18T20:36:12.671Z,16.20
2023-02-18T20:38:40.489Z,16.17
2023-02-18T20:41:12.027Z,16.23
2023-02-18T20:43:40.965Z,16.24
2023-02-18T20:46:13.576Z,16.24
2023-02-18T20:48:41.818Z,16.24
2023-02-18T20:51:16.682Z,16.27
2023-02-18T20:53:46.180Z,16.22
2023-02-18T20:56:14.313Z,16.25
2023-02-18T20:58:42.272Z,16.26
2023-02-18T21:01:14.824Z,16.25
2023-02-18T21:03:45.249Z,16.21
2023-02-18T21:06:17.059Z,16.24
2023-02-18T21:08:47.141Z,16.28
2023-02-18T21:11:23.171Z,16.25
2023-02-18T21:13:54.325Z,16.23
2023-02-18T21:16:23.821Z,16.22
2023-02-18T21:18:51.917Z,16.27
2023-02-18T21:21:20.367Z,16.29
2023-02-18T21:23:48.064Z,16.24
2023-02-18T21:26:23.390Z,16.28
2023-02-18T21:28:58.631Z,16.31
2023-02-18T21:31:49.783Z,16.31
2023-02-18T21:34:17.719Z,16.25
2023-02-18T21:36:45.673Z,16.28
2023-02-18T21:39:13.429Z,16.29
2023-02-18T21:41:41.611Z,16.30
2023-02-18T21:44:10.383Z,16.28
2023-02-18T21:46:39.715Z,16.27
2023-02-18T21:49:09.818Z,16.25
2023-02-18T21:52:11.814Z,16.30
2023-02-18T21:54:44.831Z,16.27
2023-02-18T21:57:18.388Z,16.25
2023-02-18T21:59:46.225Z,16.26
2023-02-18T22:02:34.028Z,16.28
2023-02-18T22:05:08.431Z,16.17
2023-02-18T22:07:36.179Z,16.23
2023-02-18T22:10:04.320Z,16.24
2023-02-18T22:12:33.896Z,16.23
2023-02-18T22:15:01.700Z,16.23
2023-02-18T22:17:31.977Z,16.23
2023-02-18T22:19:59.787Z,16.16
2023-02-18T22:22:27.703Z,16.17
2023-02-18T22:24:55.532Z,16.12
2023-02-18T22:27:24.396Z,16.10
2023-02-18T22:29:52.213Z,16.08
2023-02-18T22:32:20.763Z,16.09
2023-02-18T22:34:48.712Z,16.05
2023-02-18T22:37:16.372Z,16.02
2023-02-18T22:39:44.217Z,15.99
2023-02-18T22:42:11.984Z,15.97
2023-02-18T22:44:39.864Z,15.94
2023-02-18T22:47:07.550Z,15.88
2023-02-18T22:49:35.347Z,15.81
2023-02-18T22:52:03.352Z,15.78
2023-02-18T22:54:31.191Z,15.82
2023-02-18T22:56:59.067Z,15.80
2023-02-18T22:59:26.815Z,15.80
2023-02-18T23:01:54.594Z,15.79
2023-02-18T23:04:22.556Z,15.79
2023-02-18T23:06:51.015Z,15.76
2023-02-18T23:09:24.707Z,15.77
2023-02-18T23:11:56.277Z,15.76
2023-02-18T23:14:28.000Z,15.79
2023-02-18T23:17:15.193Z,15.76
2023-02-18T23:19:43.988Z,15.78
2023-02-18T23:22:15.493Z,15.78
2023-02-18T23:24:45.663Z,15.73
2023-02-18T23:27:15.554Z,15.72
2023-02-18T23:29:43.643Z,15.70
2023-02-18T23:32:11.542Z,15.69
2023-02-18T23:34:39.627Z,15.67
2023-02-18T23:37:07.716Z,15.60
2023-02-18T23:39:35.815Z,15.62
2023-02-18T23:42:03.758Z,15.62
2023-02-18T23:44:31.711Z,15.60
2023-02-18T23:47:00.271Z,15.59
2023-02-18T23:49:28.803Z,15.56
2023-02-18T23:51:57.799Z,15.54
2023-02-18T23:54:25.812Z,15.52
2023-02-18T23:56:53.704Z,15.53
2023-02-18T23:59:21.649Z,15.53
